Time;durP1;ratioP1;P1;durP2;ratioP2;P2;SDS_P1;SDS_P2;PMS_P1;PMS_P2;Temp;Humidity;BMP_temperature;BMP_pressure;BME280_temperature;BME280_humidity;BME280_pressure;Samples;Min_cycle;Max_cycle;Signal;HPM_P1;HPM_P2
2022/12/14 00:02:03;;;;;;;3.42;2.60;;;7.90;96.70;;;;;;5085530;28;20573;-75
2022/12/14 00:04:33;;;;;;;3.75;2.20;;;7.90;96.70;;;;;;5083174;28;20044;-75
2022/12/14 00:07:00;;;;;;;4.00;2.63;;;7.90;96.70;;;;;;5084259;28;20051;-75
2022/12/14 00:09:28;;;;;;;5.35;2.60;;;7.90;96.70;;;;;;5084845;28;20141;-75
2022/12/14 00:11:56;;;;;;;4.43;2.40;;;7.90;96.70;;;;;;5084346;28;20391;-75
2022/12/14 00:14:24;;;;;;;4.93;2.40;;;7.90;96.70;;;;;;5085934;28;20052;-74
2022/12/14 00:16:52;;;;;;;3.15;2.40;;;7.90;96.70;;;;;;5084970;28;20071;-75
2022/12/14 00:19:20;;;;;;;2.72;2.33;;;7.90;96.70;;;;;;5084843;28;20464;-75
2022/12/14 00:21:49;;;;;;;3.38;2.45;;;7.90;96.70;;;;;;5085048;28;20048;-75
2022/12/14 00:24:17;;;;;;;2.55;1.90;;;7.90;96.70;;;;;;5084796;28;20127;-75
2022/12/14 00:26:45;;;;;;;3.20;2.42;;;7.90;96.70;;;;;;5084417;28;20048;-75
2022/12/14 00:29:13;;;;;;;2.65;2.20;;;7.90;96.70;;;;;;5084351;28;20559;-74
2022/12/14 00:31:40;;;;;;;3.47;2.33;;;7.90;96.70;;;;;;5085921;28;20040;-75
2022/12/14 00:34:08;;;;;;;3.47;2.47;;;7.90;96.70;;;;;;5085719;28;20044;-75
2022/12/14 00:36:36;;;;;;;3.53;2.38;;;7.90;96.70;;;;;;5084885;28;20056;-74
2022/12/14 00:39:06;;;;;;;3.45;2.05;;;7.90;96.70;;;;;;5083564;28;20052;-74
2022/12/14 00:41:34;;;;;;;2.90;2.40;;;7.80;96.70;;;;;;5083173;28;20044;-74
2022/12/14 00:44:02;;;;;;;3.97;2.60;;;7.80;96.70;;;;;;5085682;28;20109;-74
2022/12/14 00:46:31;;;;;;;3.53;2.28;;;7.80;96.70;;;;;;5086363;28;20075;-75
2022/12/14 00:48:59;;;;;;;2.47;2.13;;;7.90;96.70;;;;;;5084395;28;20048;-75
2022/12/14 00:51:27;;;;;;;3.55;2.83;;;7.90;96.70;;;;;;5068377;28;20090;-74
2022/12/14 00:53:55;;;;;;;3.53;2.45;;;7.90;96.70;;;;;;5085006;28;20058;-75
2022/12/14 00:56:25;;;;;;;3.67;2.60;;;7.90;96.70;;;;;;5086673;28;20109;-75
2022/12/14 00:58:53;;;;;;;3.20;2.22;;;7.90;96.70;;;;;;5085504;28;20131;-75
2022/12/14 01:01:21;;;;;;;3.95;2.50;;;7.90;96.70;;;;;;5084177;28;20403;-75
2022/12/14 01:03:49;;;;;;;2.85;2.30;;;7.80;96.70;;;;;;5085992;28;20059;-74
2022/12/14 01:06:19;;;;;;;3.83;2.38;;;7.70;96.70;;;;;;5084240;28;20040;-74
2022/12/14 01:08:48;;;;;;;3.38;2.70;;;7.80;96.70;;;;;;5076085;28;20752;-75
2022/12/14 01:11:16;;;;;;;3.78;2.72;;;7.80;96.70;;;;;;5083583;28;20044;-75
2022/12/14 01:13:45;;;;;;;3.42;2.50;;;7.70;96.70;;;;;;5085122;28;20073;-75
2022/12/14 01:16:16;;;;;;;3.95;2.38;;;7.70;96.70;;;;;;5067740;28;20072;-74
2022/12/14 01:18:44;;;;;;;3.67;2.60;;;7.80;96.70;;;;;;5100536;28;20043;-74
2022/12/14 01:21:14;;;;;;;3.40;2.30;;;7.80;96.70;;;;;;5084240;28;20052;-75
2022/12/14 01:23:43;;;;;;;3.15;2.22;;;7.90;96.70;;;;;;5083884;28;20592;-75
2022/12/14 01:26:12;;;;;;;3.97;2.40;;;7.90;96.70;;;;;;5084038;28;20516;-75
2022/12/14 01:28:40;;;;;;;3.90;2.80;;;7.90;96.70;;;;;;5066960;28;20075;-76
2022/12/14 01:31:13;;;;;;;3.10;2.30;;;8.00;96.70;;;;;;5066509;28;20044;-75
2022/12/14 01:33:41;;;;;;;4.00;2.83;;;8.00;96.70;;;;;;5084191;28;20048;-75
2022/12/14 01:36:11;;;;;;;3.78;2.90;;;8.00;96.70;;;;;;5084262;28;20041;-75
2022/12/14 01:38:38;;;;;;;2.88;2.38;;;7.90;96.70;;;;;;5083118;28;20106;-74
2022/12/14 01:41:08;;;;;;;3.75;2.70;;;7.90;96.70;;;;;;5082871;28;20135;-74
2022/12/14 01:43:46;;;;;;;3.70;2.67;;;7.90;96.70;;;;;;5082556;28;20146;-75
2022/12/14 01:46:23;;;;;;;3.83;2.50;;;7.90;96.70;;;;;;5083434;28;20052;-74
2022/12/14 01:48:54;;;;;;;3.65;2.72;;;8.00;96.70;;;;;;5084886;28;20444;-75
2022/12/14 01:51:25;;;;;;;3.22;2.60;;;8.00;96.70;;;;;;5083387;28;20570;-75
2022/12/14 01:53:55;;;;;;;3.15;2.58;;;8.00;96.70;;;;;;5083106;28;20052;-75
2022/12/14 01:56:23;;;;;;;3.85;2.75;;;8.00;96.70;;;;;;5074893;28;20047;-75
2022/12/14 01:58:52;;;;;;;3.53;2.42;;;8.00;96.70;;;;;;5082368;28;20135;-75
2022/12/14 02:01:21;;;;;;;3.00;2.53;;;8.00;96.70;;;;;;5084677;28;20044;-75
2022/12/14 02:03:51;;;;;;;2.92;2.00;;;7.90;96.70;;;;;;5083153;28;20072;-75
2022/12/14 02:06:24;;;;;;;3.45;2.30;;;7.80;96.70;;;;;;5088208;28;20476;-74
2022/12/14 02:08:54;;;;;;;2.83;2.22;;;7.80;96.70;;;;;;5074787;28;20051;-75
2022/12/14 02:11:30;;;;;;;2.72;2.20;;;7.80;96.70;;;;;;5082873;28;20728;-75
2022/12/14 02:13:58;;;;;;;2.55;1.70;;;7.90;96.70;;;;;;5082360;28;20167;-75
2022/12/14 02:16:27;;;;;;;4.38;2.10;;;7.90;96.70;;;;;;5084486;28;20131;-75
2022/12/14 02:18:55;;;;;;;2.40;1.90;;;7.90;96.70;;;;;;5062400;28;20921;-75
2022/12/14 02:21:35;;;;;;;3.22;1.88;;;7.90;96.70;;;;;;5085338;28;20047;-74
2022/12/14 02:24:41;;;;;;;2.50;1.95;;;7.90;96.70;;;;;;5082211;28;20159;-75
2022/12/14 02:27:24;;;;;;;2.40;1.83;;;7.90;96.70;;;;;;5082997;28;20139;-77
2022/12/14 02:30:06;;;;;;;2.53;1.80;;;8.00;96.70;;;;;;5084353;28;20550;-76
2022/12/14 02:32:57;;;;;;;2.20;1.65;;;8.00;96.70;;;;;;5082484;28;20125;-77
2022/12/14 02:35:36;;;;;;;3.35;1.95;;;8.00;96.70;;;;;;5082708;28;20765;-77
2022/12/14 02:38:14;;;;;;;2.83;1.92;;;8.00;96.70;;;;;;5065796;28;20046;-76
2022/12/14 02:40:56;;;;;;;3.03;1.85;;;8.00;96.70;;;;;;5074061;28;20525;-77
2022/12/14 02:43:30;;;;;;;2.70;2.03;;;8.00;96.70;;;;;;5065484;28;20054;-76
2022/12/14 02:46:08;;;;;;;2.38;1.90;;;8.00;96.70;;;;;;5065740;28;20059;-76
2022/12/14 02:48:40;;;;;;;3.33;1.80;;;8.00;96.70;;;;;;5076199;28;20121;-76
2022/12/14 02:51:17;;;;;;;2.97;1.88;;;8.00;96.70;;;;;;5082037;28;20142;-77
2022/12/14 02:53:50;;;;;;;2.70;1.85;;;7.90;96.70;;;;;;5082322;28;20048;-77
2022/12/14 02:56:24;;;;;;;5.15;2.05;;;7.90;96.70;;;;;;5082772;28;20051;-77
2022/12/14 02:58:52;;;;;;;2.30;1.85;;;8.00;96.70;;;;;;5076627;28;20505;-77
2022/12/14 03:01:26;;;;;;;3.38;2.05;;;8.00;96.70;;;;;;5082575;28;20144;-77
2022/12/14 03:03:54;;;;;;;2.33;1.77;;;7.90;96.70;;;;;;5081863;28;20068;-77
2022/12/14 03:06:26;;;;;;;1.70;1.50;;;8.00;96.70;;;;;;5082036;28;20461;-77
2022/12/14 03:08:58;;;;;;;1.77;1.42;;;7.90;96.70;;;;;;5082870;28;20527;-77
2022/12/14 03:11:33;;;;;;;1.98;1.55;;;7.90;96.70;;;;;;5082981;28;20063;-77
2022/12/14 03:14:07;;;;;;;2.35;1.80;;;7.90;96.70;;;;;;5098899;28;20055;-77
2022/12/14 03:16:40;;;;;;;1.77;1.40;;;7.90;96.70;;;;;;5081957;28;20071;-77
2022/12/14 03:19:13;;;;;;;2.20;1.33;;;8.00;96.70;;;;;;5073379;28;20456;-77
2022/12/14 03:21:48;;;;;;;2.40;1.52;;;8.00;96.70;;;;;;5082314;28;20043;-77
2022/12/14 03:24:21;;;;;;;2.40;1.30;;;7.90;96.70;;;;;;5081860;28;20414;-78
2022/12/14 03:26:56;;;;;;;1.70;1.33;;;8.00;96.70;;;;;;5081192;28;20047;-75
2022/12/14 03:29:30;;;;;;;1.63;1.20;;;8.00;96.70;;;;;;5082514;28;20048;-75
2022/12/14 03:32:04;;;;;;;2.53;1.40;;;8.00;96.70;;;;;;5081387;28;20075;-75
2022/12/14 03:34:37;;;;;;;2.15;1.65;;;8.00;96.70;;;;;;5098259;28;20167;-75
2022/12/14 03:37:11;;;;;;;2.05;1.58;;;8.00;96.70;;;;;;5083432;28;20044;-74
2022/12/14 03:39:42;;;;;;;1.65;1.35;;;8.00;96.70;;;;;;5056692;28;20051;-74
2022/12/14 03:42:16;;;;;;;2.38;1.58;;;7.90;96.70;;;;;;5080877;28;20040;-75
2022/12/14 03:44:48;;;;;;;2.05;1.67;;;7.90;96.70;;;;;;5082250;28;20043;-75
2022/12/14 03:47:30;;;;;;;2.17;1.52;;;7.90;96.70;;;;;;5082092;28;20040;-75
2022/12/14 03:50:01;;;;;;;2.45;1.73;;;7.90;96.70;;;;;;5081079;28;20060;-75
2022/12/14 03:52:35;;;;;;;2.97;2.03;;;7.90;96.70;;;;;;5080980;28;20051;-75
2022/12/14 03:55:16;;;;;;;2.38;1.80;;;7.90;96.70;;;;;;5080709;28;20048;-75
2022/12/14 03:58:04;;;;;;;2.92;1.85;;;7.90;96.70;;;;;;5073104;28;20392;-74
2022/12/14 04:00:39;;;;;;;2.22;1.70;;;7.90;96.70;;;;;;5080306;28;20047;-75
2022/12/14 04:03:15;;;;;;;1.73;1.42;;;7.90;96.70;;;;;;5080761;28;20074;-74
2022/12/14 04:05:48;;;;;;;2.33;1.75;;;7.90;96.70;;;;;;5079348;28;20044;-75
2022/12/14 04:08:26;;;;;;;2.15;1.80;;;7.90;96.70;;;;;;5065471;28;20052;-75
2022/12/14 04:19:48;;;;;;;2.55;1.80;;;7.90;96.70;;;;;;5056683;28;20048;-74
2022/12/14 04:22:20;;;;;;;2.85;1.75;;;7.90;96.70;;;;;;5074257;28;20566;-75
2022/12/14 04:27:47;;;;;;;2.58;1.90;;;7.90;96.70;;;;;;5082289;28;20044;-75
2022/12/14 04:30:15;;;;;;;2.92;2.15;;;7.90;96.70;;;;;;5081468;28;20050;-75
2022/12/14 04:32:48;;;;;;;2.70;2.00;;;8.00;96.70;;;;;;5081661;28;20048;-75
2022/12/14 04:35:23;;;;;;;2.58;1.60;;;8.00;96.70;;;;;;5081794;28;20159;-75
2022/12/14 04:38:00;;;;;;;2.83;2.00;;;8.00;96.70;;;;;;5066968;28;20383;-74
2022/12/14 04:40:32;;;;;;;2.25;1.70;;;8.00;96.70;;;;;;5081581;28;20059;-75
2022/12/14 04:43:06;;;;;;;3.33;1.73;;;7.90;96.70;;;;;;5085465;28;20110;-75
2022/12/14 04:45:41;;;;;;;2.67;1.80;;;8.00;96.70;;;;;;5073388;28;20085;-75
2022/12/14 04:48:23;;;;;;;4.65;1.80;;;8.10;96.70;;;;;;5090071;28;20063;-77
2022/12/14 04:51:01;;;;;;;3.13;1.77;;;8.10;96.70;;;;;;5085905;28;20055;-77
2022/12/14 04:53:33;;;;;;;3.38;1.90;;;8.10;96.70;;;;;;5086276;28;20464;-77
2022/12/14 04:56:09;;;;;;;2.60;1.73;;;7.90;96.70;;;;;;5086070;28;20078;-77
2022/12/14 04:58:39;;;;;;;3.42;2.00;;;7.90;96.70;;;;;;5084852;28;20047;-77
2022/12/14 05:01:31;;;;;;;1.90;1.60;;;7.90;96.70;;;;;;5085779;28;20048;-77
2022/12/14 05:04:08;;;;;;;3.10;2.33;;;7.90;96.70;;;;;;5085880;28;20052;-77
2022/12/14 05:06:49;;;;;;;2.63;1.70;;;8.00;96.70;;;;;;5085203;28;20040;-76
2022/12/14 05:09:21;;;;;;;2.97;1.90;;;8.00;96.70;;;;;;5079109;28;20113;-78
2022/12/14 05:11:54;;;;;;;2.75;1.73;;;8.00;96.70;;;;;;5085004;28;20516;-77
2022/12/14 05:14:29;;;;;;;2.97;2.10;;;8.10;96.70;;;;;;5084002;28;20060;-77
2022/12/14 05:16:57;;;;;;;2.53;2.03;;;8.00;96.70;;;;;;5084174;28;20079;-77
2022/12/14 05:19:33;;;;;;;4.13;2.47;;;7.90;96.70;;;;;;5078053;28;20068;-77
2022/12/14 05:22:05;;;;;;;2.15;1.63;;;7.90;96.70;;;;;;5085959;28;20044;-77
2022/12/14 05:24:34;;;;;;;2.33;1.55;;;8.00;96.70;;;;;;5085777;28;20748;-77
2022/12/14 05:27:02;;;;;;;3.03;2.05;;;8.00;96.70;;;;;;5083958;28;20047;-77
2022/12/14 05:29:30;;;;;;;2.95;1.77;;;8.00;96.70;;;;;;5067242;28;20258;-77
2022/12/14 05:31:58;;;;;;;4.55;1.98;;;8.00;96.70;;;;;;5084124;28;20048;-77
2022/12/14 05:34:26;;;;;;;3.00;2.20;;;7.90;96.70;;;;;;5078876;28;20064;-77
2022/12/14 05:36:55;;;;;;;3.97;2.72;;;7.90;96.70;;;;;;5081960;28;20342;-77
2022/12/14 05:39:24;;;;;;;4.30;2.70;;;7.90;96.70;;;;;;5083853;28;20044;-77
2022/12/14 05:41:53;;;;;;;4.65;3.10;;;7.90;96.70;;;;;;5078119;28;20052;-77
2022/12/14 05:44:23;;;;;;;3.92;2.55;;;7.90;96.70;;;;;;5084181;28;20056;-76
2022/12/14 05:46:52;;;;;;;4.25;2.63;;;7.90;96.70;;;;;;5067916;28;20048;-77
2022/12/14 05:49:21;;;;;;;3.95;2.10;;;7.90;96.70;;;;;;5084036;28;20134;-77
2022/12/14 05:51:49;;;;;;;3.70;2.55;;;7.90;96.70;;;;;;5058596;28;20049;-77
2022/12/14 05:54:18;;;;;;;3.85;2.53;;;7.90;96.70;;;;;;5081505;28;20040;-77
2022/12/14 05:56:48;;;;;;;4.72;3.10;;;7.80;96.70;;;;;;5077671;28;20071;-77
2022/12/14 05:59:16;;;;;;;3.72;2.10;;;7.80;96.70;;;;;;5084053;28;20102;-76
2022/12/14 06:01:45;;;;;;;3.45;2.67;;;7.90;96.70;;;;;;5083094;28;20040;-76
2022/12/14 06:04:18;;;;;;;3.47;2.28;;;7.90;96.70;;;;;;5082192;28;20040;-76
2022/12/14 06:06:46;;;;;;;3.03;2.40;;;7.90;96.70;;;;;;5062155;28;20682;-74
2022/12/14 06:09:15;;;;;;;3.72;2.70;;;7.90;96.70;;;;;;5072628;28;20037;-74
2022/12/14 06:11:45;;;;;;;3.42;2.30;;;7.90;96.70;;;;;;5082347;28;20048;-76
2022/12/14 06:14:15;;;;;;;4.30;2.53;;;8.00;96.70;;;;;;5083824;28;20493;-74
2022/12/14 06:16:45;;;;;;;3.70;2.85;;;8.00;96.70;;;;;;5082935;28;20044;-74
2022/12/14 06:19:14;;;;;;;3.33;2.35;;;7.90;96.70;;;;;;5082208;28;20040;-74
2022/12/14 06:21:43;;;;;;;2.90;2.28;;;7.90;96.70;;;;;;5073282;28;20125;-75
2022/12/14 06:24:12;;;;;;;3.83;2.67;;;8.00;96.70;;;;;;5082863;28;20105;-75
2022/12/14 06:26:41;;;;;;;5.13;2.90;;;8.00;96.70;;;;;;5082443;28;20429;-74
2022/12/14 06:29:15;;;;;;;3.72;2.38;;;8.00;96.70;;;;;;5083420;28;20500;-74
2022/12/14 06:31:44;;;;;;;6.43;2.70;;;8.10;96.70;;;;;;5083149;28;20047;-74
2022/12/14 06:34:17;;;;;;;3.50;2.22;;;8.10;96.70;;;;;;5081672;28;20576;-76
2022/12/14 06:36:51;;;;;;;4.63;3.08;;;8.00;96.70;;;;;;5082371;28;20054;-74
2022/12/14 06:39:19;;;;;;;4.78;2.95;;;8.00;96.70;;;;;;5083624;28;20047;-74
2022/12/14 06:41:50;;;;;;;3.17;2.15;;;8.10;96.70;;;;;;5081833;28;20047;-74
2022/12/14 06:44:20;;;;;;;4.15;2.75;;;8.10;96.70;;;;;;5078814;28;20036;-74
2022/12/14 06:46:48;;;;;;;3.20;2.22;;;8.10;96.70;;;;;;5080826;28;20135;-75
2022/12/14 06:49:16;;;;;;;4.68;2.70;;;8.10;96.70;;;;;;5076577;28;20032;-75
2022/12/14 06:51:45;;;;;;;3.30;2.35;;;8.00;96.70;;;;;;5081961;28;20044;-74
2022/12/14 06:54:15;;;;;;;6.45;2.92;;;8.00;96.70;;;;;;5072943;28;20052;-76
2022/12/14 06:56:45;;;;;;;3.25;2.13;;;8.00;96.70;;;;;;5098716;28;20057;-78
2022/12/14 06:59:14;;;;;;;3.75;2.15;;;8.00;96.70;;;;;;5082270;28;20051;-76
2022/12/14 07:01:44;;;;;;;3.03;1.95;;;8.10;96.70;;;;;;5081693;28;20406;-75
2022/12/14 07:04:19;;;;;;;3.05;1.83;;;8.00;96.70;;;;;;5083214;28;20055;-75
2022/12/14 07:06:48;;;;;;;2.88;1.90;;;8.10;96.70;;;;;;5082465;28;20119;-75
2022/12/14 07:09:16;;;;;;;4.75;2.45;;;8.10;96.70;;;;;;5072769;28;20071;-75
2022/12/14 07:11:45;;;;;;;4.30;2.80;;;8.10;96.70;;;;;;5098963;28;20048;-77
2022/12/14 07:14:15;;;;;;;5.72;3.20;;;8.10;96.70;;;;;;5080878;28;20056;-74
2022/12/14 07:16:45;;;;;;;4.68;2.70;;;8.10;96.70;;;;;;5082739;28;20086;-75
2022/12/14 07:19:16;;;;;;;6.25;2.80;;;8.10;96.70;;;;;;5082636;28;20775;-75
2022/12/14 07:21:44;;;;;;;7.25;3.83;;;8.10;96.70;;;;;;5074048;28;20051;-75
2022/12/14 07:24:13;;;;;;;5.40;2.97;;;8.00;96.70;;;;;;5082753;28;20048;-75
2022/12/14 07:26:41;;;;;;;6.25;3.75;;;8.00;96.70;;;;;;5082609;28;20052;-75
2022/12/14 07:29:10;;;;;;;6.88;3.25;;;8.00;96.70;;;;;;5096920;28;20052;-76
2022/12/14 07:31:39;;;;;;;5.45;2.92;;;8.10;96.70;;;;;;5065681;28;20042;-75
2022/12/14 07:34:11;;;;;;;5.07;3.20;;;8.00;96.70;;;;;;5080767;28;20040;-75
2022/12/14 07:36:41;;;;;;;5.43;3.53;;;8.10;96.70;;;;;;5081380;28;20094;-76
2022/12/14 07:39:14;;;;;;;5.00;3.00;;;8.10;96.70;;;;;;5081757;28;20475;-76
2022/12/14 07:41:43;;;;;;;5.97;3.47;;;8.10;96.70;;;;;;5064449;28;20141;-76
2022/12/14 07:44:14;;;;;;;6.55;3.97;;;8.10;96.70;;;;;;5063238;28;20140;-75
2022/12/14 07:46:42;;;;;;;8.88;3.67;;;8.10;96.70;;;;;;5080533;28;20062;-76
2022/12/14 07:49:12;;;;;;;6.47;3.58;;;8.10;96.70;;;;;;5080988;28;20044;-76
2022/12/14 07:51:42;;;;;;;4.82;3.45;;;8.10;96.70;;;;;;5080152;28;20134;-76
2022/12/14 07:54:12;;;;;;;5.70;3.95;;;8.20;96.70;;;;;;5081045;28;20044;-75
2022/12/14 07:56:42;;;;;;;4.88;3.50;;;8.20;96.70;;;;;;5082188;28;20040;-74
2022/12/14 07:59:14;;;;;;;5.30;3.88;;;8.20;96.70;;;;;;5074269;28;20756;-77
2022/12/14 08:01:43;;;;;;;7.13;4.18;;;8.20;96.70;;;;;;5081488;28;20044;-76
2022/12/14 08:04:15;;;;;;;6.20;4.80;;;8.20;96.70;;;;;;5082617;28;20155;-76
2022/12/14 08:06:45;;;;;;;5.30;3.72;;;8.20;96.70;;;;;;5061194;28;20168;-77
2022/12/14 08:09:14;;;;;;;6.97;5.40;;;8.20;96.70;;;;;;5079743;28;20055;-76
2022/12/14 08:11:43;;;;;;;6.22;5.18;;;8.20;96.70;;;;;;5080904;28;20048;-75
2022/12/14 08:14:13;;;;;;;7.38;4.47;;;8.20;96.70;;;;;;5080351;28;20060;-74
2022/12/14 08:16:42;;;;;;;6.43;4.13;;;8.20;96.70;;;;;;5081791;28;20417;-76
2022/12/14 08:19:12;;;;;;;7.40;4.22;;;8.30;96.70;;;;;;5086766;28;20052;-76
2022/12/14 08:21:41;;;;;;;7.22;4.55;;;8.30;96.70;;;;;;5084404;28;20052;-80
2022/12/14 08:24:10;;;;;;;6.25;4.45;;;8.40;96.70;;;;;;5085070;28;20505;-75
2022/12/14 08:26:39;;;;;;;7.30;4.32;;;8.40;96.70;;;;;;5085186;28;20588;-75
2022/12/14 08:29:08;;;;;;;9.82;5.20;;;8.40;96.70;;;;;;5084158;28;20093;-76
2022/12/14 08:31:36;;;;;;;8.75;4.45;;;8.40;96.70;;;;;;5102286;28;20048;-76
2022/12/14 08:34:05;;;;;;;5.82;4.57;;;8.40;96.70;;;;;;5085735;28;20508;-76
2022/12/14 08:36:34;;;;;;;6.15;4.32;;;8.50;96.70;;;;;;5086563;28;20036;-76
2022/12/14 08:39:05;;;;;;;8.63;5.68;;;8.50;96.70;;;;;;5084987;28;20067;-75
2022/12/14 08:41:34;;;;;;;7.57;4.80;;;8.50;96.70;;;;;;5086462;28;20048;-75
2022/12/14 08:44:04;;;;;;;7.53;5.07;;;8.50;96.70;;;;;;5085238;28;20040;-75
2022/12/14 08:46:33;;;;;;;5.93;4.70;;;8.50;96.70;;;;;;5067525;28;20048;-75
2022/12/14 08:49:02;;;;;;;5.38;4.25;;;8.60;96.70;;;;;;5075524;28;20047;-76
2022/12/14 08:51:30;;;;;;;5.32;3.78;;;8.60;96.70;;;;;;5086316;28;20298;-76
2022/12/14 08:54:00;;;;;;;6.63;4.65;;;8.60;96.70;;;;;;5086005;28;20048;-75
2022/12/14 08:56:28;;;;;;;8.00;5.25;;;8.60;96.70;;;;;;5084611;28;20276;-75
2022/12/14 08:58:57;;;;;;;8.13;4.40;;;8.60;96.70;;;;;;5085198;28;20064;-75
2022/12/14 09:01:27;;;;;;;6.43;3.72;;;8.60;96.70;;;;;;5085714;28;20783;-75
2022/12/14 09:04:06;;;;;;;4.80;3.50;;;8.60;96.70;;;;;;5085519;28;20047;-76
2022/12/14 09:06:37;;;;;;;5.30;3.40;;;8.50;96.70;;;;;;5086247;28;20420;-76
2022/12/14 09:09:08;;;;;;;3.95;3.20;;;8.50;96.70;;;;;;5084116;28;20048;-75
2022/12/14 09:11:43;;;;;;;5.60;3.50;;;8.60;96.70;;;;;;5082957;28;20113;-76
2022/12/14 09:14:12;;;;;;;5.18;3.78;;;8.60;96.70;;;;;;5084261;28;20052;-76
2022/12/14 09:16:40;;;;;;;6.00;4.03;;;8.60;96.70;;;;;;5083684;28;20052;-76
2022/12/14 09:19:09;;;;;;;7.95;5.40;;;8.70;96.70;;;;;;5083997;28;20040;-76
2022/12/14 09:21:38;;;;;;;5.97;3.60;;;8.70;96.70;;;;;;5085852;28;20051;-75
2022/12/14 09:24:08;;;;;;;4.97;3.50;;;8.80;96.70;;;;;;5083605;28;20040;-75
2022/12/14 09:26:37;;;;;;;4.85;3.05;;;8.80;96.70;;;;;;5083840;28;20075;-75
2022/12/14 09:29:05;;;;;;;4.13;2.70;;;8.80;96.70;;;;;;5082627;28;20039;-76
2022/12/14 09:31:33;;;;;;;4.88;2.95;;;8.80;96.70;;;;;;5083904;28;20056;-75
2022/12/14 09:34:02;;;;;;;4.40;3.25;;;8.80;96.70;;;;;;5083367;28;20076;-77
2022/12/14 09:36:31;;;;;;;4.38;3.50;;;8.80;96.70;;;;;;5066453;28;20326;-75
2022/12/14 09:39:00;;;;;;;4.68;3.47;;;8.80;96.70;;;;;;5083384;28;20055;-75
2022/12/14 09:41:44;;;;;;;5.00;3.45;;;8.90;96.70;;;;;;5082303;28;20542;-75
2022/12/14 09:44:24;;;;;;;3.25;2.83;;;8.90;96.70;;;;;;5082852;28;20052;-75
2022/12/14 09:47:01;;;;;;;6.28;3.20;;;8.90;96.70;;;;;;5083324;28;20040;-76
2022/12/14 09:49:32;;;;;;;3.58;2.65;;;8.90;96.70;;;;;;5083467;28;20048;-76
2022/12/14 09:52:03;;;;;;;3.97;2.88;;;8.90;96.70;;;;;;5086034;28;20113;-75
2022/12/14 09:54:35;;;;;;;5.18;3.08;;;9.00;96.70;;;;;;5100408;28;20078;-75
2022/12/14 09:57:10;;;;;;;4.68;3.00;;;9.00;96.70;;;;;;5067023;28;20044;-76
2022/12/14 09:59:39;;;;;;;6.60;4.05;;;9.00;96.70;;;;;;5084243;28;20044;-75
2022/12/14 10:02:34;;;;;;;6.32;4.00;;;9.00;96.70;;;;;;5066692;28;20773;-75
2022/12/14 10:05:19;;;;;;;9.77;4.00;;;9.00;96.70;;;;;;5058616;28;20125;-75
2022/12/14 10:07:59;;;;;;;8.80;5.50;;;9.00;96.70;;;;;;5066473;28;20048;-75
2022/12/14 10:10:35;;;;;;;7.45;4.93;;;9.00;96.70;;;;;;5084649;28;20113;-76
2022/12/14 10:13:22;;;;;;;9.35;5.70;;;9.00;96.70;;;;;;5075880;28;20056;-75
2022/12/14 10:15:58;;;;;;;7.25;5.15;;;9.10;96.70;;;;;;5082923;28;20878;-76
2022/12/14 10:18:50;;;;;;;6.10;4.45;;;9.10;96.70;;;;;;5083459;28;20044;-73
2022/12/14 10:21:41;;;;;;;5.82;3.97;;;9.10;96.70;;;;;;5082520;28;20048;-74
2022/12/14 10:24:16;;;;;;;9.23;4.43;;;9.20;96.70;;;;;;5083848;28;20044;-74
2022/12/14 10:26:49;;;;;;;7.13;4.15;;;9.20;96.70;;;;;;5082942;28;20052;-74
2022/12/14 10:29:26;;;;;;;7.47;4.30;;;9.20;96.70;;;;;;5082269;28;20073;-74
2022/12/14 10:31:57;;;;;;;;;;;9.20;96.70;;;;;;5083226;28;20139;-74
2022/12/14 10:34:29;;;;;;;6.10;4.60;;;9.20;96.70;;;;;;5065493;28;19931;-74
2022/12/14 10:37:10;;;;;;;8.35;5.30;;;9.20;96.70;;;;;;5082369;28;20043;-75
2022/12/14 10:39:50;;;;;;;8.82;6.13;;;9.20;96.70;;;;;;5081833;28;20051;-74
2022/12/14 10:42:25;;;;;;;6.57;4.68;;;9.30;96.70;;;;;;5081895;28;20051;-74
2022/12/14 10:45:05;;;;;;;5.47;3.80;;;9.30;96.70;;;;;;5081773;28;20075;-73
2022/12/14 10:48:03;;;;;;;7.85;4.95;;;9.30;96.70;;;;;;5067795;28;20078;-74
2022/12/14 10:50:44;;;;;;;5.80;4.00;;;9.30;96.70;;;;;;5082164;28;20075;-74
2022/12/14 10:53:22;;;;;;;8.40;4.30;;;9.30;96.70;;;;;;5086146;28;20040;-74
2022/12/14 10:55:57;;;;;;;10.88;6.85;;;9.30;96.70;;;;;;5083501;28;20044;-74
2022/12/14 10:58:26;;;;;;;11.15;6.75;;;9.40;96.70;;;;;;5074418;28;20127;-74
2022/12/14 11:00:57;;;;;;;13.65;7.82;;;9.40;96.70;;;;;;5083642;28;20094;-74
2022/12/14 11:03:27;;;;;;;10.68;6.25;;;9.40;96.70;;;;;;5083133;28;20070;-75
2022/12/14 11:06:02;;;;;;;4.80;3.38;;;9.40;96.70;;;;;;5083405;28;20082;-74
2022/12/14 11:08:40;;;;;;;8.00;4.57;;;9.30;96.70;;;;;;5057157;28;20059;-76
2022/12/14 11:11:13;;;;;;;6.88;4.13;;;9.30;96.70;;;;;;5083187;28;20052;-75
2022/12/14 11:13:51;;;;;;;6.53;4.25;;;9.30;96.70;;;;;;5082540;28;20060;-76
2022/12/14 11:16:35;;;;;;;4.93;2.42;;;9.20;96.70;;;;;;5064800;28;20497;-75
2022/12/14 11:19:16;;;;;;;4.07;2.75;;;9.20;96.70;;;;;;5081770;28;20498;-76
2022/12/14 11:21:46;;;;;;;4.97;3.65;;;9.20;96.70;;;;;;5081942;28;20040;-74
2022/12/14 11:24:22;;;;;;;6.28;4.32;;;9.20;96.70;;;;;;5082710;28;20048;-74
2022/12/14 11:26:52;;;;;;;6.90;4.38;;;9.10;96.70;;;;;;5081200;28;20058;-74
2022/12/14 11:29:29;;;;;;;8.45;5.65;;;9.10;96.70;;;;;;5080882;28;20047;-76
2022/12/14 11:32:00;;;;;;;7.00;4.93;;;9.10;96.70;;;;;;5080713;28;20052;-76
2022/12/14 11:34:33;;;;;;;6.80;4.80;;;9.10;96.70;;;;;;5081016;28;20130;-75
2022/12/14 11:37:13;;;;;;;8.70;5.40;;;9.10;96.70;;;;;;5081295;28;20044;-74
2022/12/14 11:39:42;;;;;;;8.75;6.65;;;9.10;96.70;;;;;;5083034;28;20047;-74
2022/12/14 11:42:17;;;;;;;6.82;5.10;;;9.00;96.70;;;;;;5098399;28;20120;-74
2022/12/14 11:44:48;;;;;;;7.75;5.72;;;9.10;96.70;;;;;;5073707;28;20048;-73
2022/12/14 11:47:20;;;;;;;7.68;5.40;;;9.10;96.70;;;;;;5081268;28;20043;-74
2022/12/14 11:49:50;;;;;;;7.55;4.97;;;9.10;96.70;;;;;;5082686;28;20039;-74
2022/12/14 11:52:20;;;;;;;16.27;8.68;;;9.10;96.70;;;;;;5084695;28;20060;-75
2022/12/14 11:55:08;;;;;;;17.75;11.43;;;9.10;96.70;;;;;;5064130;28;20056;-75
2022/12/14 11:57:48;;;;;;;11.50;7.72;;;9.10;96.70;;;;;;5081504;28;20865;-76
2022/12/14 12:00:28;;;;;;;10.05;6.40;;;9.10;96.70;;;;;;5076675;28;20070;-76
2022/12/14 12:03:05;;;;;;;7.47;6.28;;;9.10;96.70;;;;;;5073872;28;20048;-76
2022/12/14 12:05:39;;;;;;;8.07;6.05;;;9.10;96.70;;;;;;5081520;28;20051;-77
2022/12/14 12:08:20;;;;;;;8.18;5.45;;;9.10;96.70;;;;;;5062952;28;20048;-76
2022/12/14 12:10:52;;;;;;;7.30;5.38;;;9.10;96.70;;;;;;5069725;28;20036;-79
2022/12/14 12:13:26;;;;;;;6.78;5.13;;;9.10;96.70;;;;;;5058283;28;20044;-77
2022/12/14 12:15:57;;;;;;;6.90;5.30;;;9.10;96.70;;;;;;5073599;28;20145;-77
2022/12/14 12:18:34;;;;;;;6.75;4.32;;;9.10;96.70;;;;;;5057590;28;20226;-79
2022/12/14 12:21:11;;;;;;;5.13;4.40;;;9.10;96.70;;;;;;5073815;28;20055;-77
2022/12/14 12:23:45;;;;;;;6.32;4.22;;;9.10;96.70;;;;;;5081435;28;20485;-78
2022/12/14 12:26:18;;;;;;;7.55;5.60;;;9.10;96.70;;;;;;5081437;28;20156;-77
2022/12/14 12:28:52;;;;;;;6.65;5.60;;;9.20;96.70;;;;;;5095881;28;20065;-77
2022/12/14 12:31:25;;;;;;;7.72;5.88;;;9.20;96.70;;;;;;5074190;28;20074;-78
2022/12/14 12:34:00;;;;;;;8.75;6.00;;;9.20;96.70;;;;;;5081281;28;20657;-78
2022/12/14 12:36:31;;;;;;;11.07;6.40;;;9.30;96.70;;;;;;5082120;28;20040;-81
2022/12/14 12:39:05;;;;;;;9.70;6.88;;;9.30;96.70;;;;;;5083808;28;20102;-79
2022/12/14 12:41:45;;;;;;;10.40;7.80;;;9.40;96.70;;;;;;5080600;28;20564;-80
2022/12/14 12:44:26;;;;;;;13.13;7.22;;;9.40;96.70;;;;;;5065780;28;20063;-78
2022/12/14 12:47:06;;;;;;;8.70;6.53;;;9.50;96.70;;;;;;5080683;28;20066;-77
2022/12/14 12:49:59;;;;;;;12.07;5.85;;;9.50;96.70;;;;;;5078627;28;20040;-79
2022/12/14 12:52:33;;;;;;;8.57;5.38;;;9.60;96.70;;;;;;5085883;28;20070;-79
2022/12/14 12:55:13;;;;;;;6.68;4.78;;;9.60;96.70;;;;;;5083529;28;20808;-79
2022/12/14 12:57:45;;;;;;;7.00;4.43;;;9.60;96.70;;;;;;5082832;28;20077;-79
2022/12/14 13:00:17;;;;;;;15.93;6.45;;;9.60;96.70;;;;;;5079793;28;20547;-80
2022/12/14 13:02:50;;;;;;;5.90;4.38;;;9.60;96.70;;;;;;5080797;28;20162;-78
2022/12/14 13:05:24;;;;;;;4.35;3.65;;;9.70;96.70;;;;;;5078429;28;20040;-79
2022/12/14 13:08:22;;;;;;;6.18;4.45;;;9.70;96.70;;;;;;5083541;28;20040;-78
2022/12/14 13:10:54;;;;;;;7.28;4.55;;;9.80;96.70;;;;;;5083869;28;20044;-78
2022/12/14 13:13:47;;;;;;;9.05;5.60;;;9.80;96.70;;;;;;5069649;28;20447;-78
2022/12/14 13:16:22;;;;;;;9.15;6.95;;;9.70;96.70;;;;;;5067756;28;20207;-79
2022/12/14 13:19:01;;;;;;;9.52;6.75;;;9.70;96.70;;;;;;5077644;28;20046;-77
2022/12/14 13:21:53;;;;;;;6.38;4.90;;;9.70;96.70;;;;;;5102132;28;20516;-78
2022/12/14 13:24:26;;;;;;;11.63;8.75;;;9.70;96.70;;;;;;5084975;28;20051;-80
2022/12/14 13:27:22;;;;;;;5.78;4.63;;;9.80;96.70;;;;;;5084357;28;20113;-78
2022/12/14 13:30:21;;;;;;;5.60;3.83;;;9.80;96.70;;;;;;5082107;28;20047;-78
2022/12/14 13:33:09;;;;;;;6.05;3.85;;;9.80;96.70;;;;;;5084665;28;20662;-79
2022/12/14 13:35:52;;;;;;;4.00;3.20;;;9.90;96.70;;;;;;5085782;28;20851;-79
2022/12/14 13:38:45;;;;;;;7.15;4.55;;;9.90;96.70;;;;;;5080206;28;20067;-80
2022/12/14 13:41:26;;;;;;;5.88;3.95;;;10.00;96.70;;;;;;5084402;28;20050;-78